Time;durP1;ratioP1;P1;durP2;ratioP2;P2;SDS_P1;SDS_P2;PMS_P1;PMS_P2;Temp;Humidity;BMP_temperature;BMP_pressure;BME280_temperature;BME280_humidity;BME280_pressure;Samples;Min_cycle;Max_cycle;Signal;HPM_P1;HPM_P2
2021/08/21 00:02:19;;;;;;;152.12;112.00;;;;;;;;;;5219997;27;20053;-86
2021/08/21 00:04:49;;;;;;;148.77;107.30;;;;;;;;;;5223803;27;20083;-87
2021/08/21 00:07:18;;;;;;;147.50;97.05;;;;;;;;;;5201986;27;20264;-86
2021/08/21 00:09:47;;;;;;;162.43;103.00;;;;;;;;;;5224139;27;20026;-86
2021/08/21 00:12:17;;;;;;;159.77;105.00;;;;;;;;;;5221560;27;20093;-86
2021/08/21 00:14:45;;;;;;;163.12;105.32;;;;;;;;;;5223127;27;20049;-87
2021/08/21 00:17:13;;;;;;;175.50;117.07;;;;;;;;;;5200987;27;20383;-87
2021/08/21 00:19:42;;;;;;;152.80;104.50;;;;;;;;;;5222330;27;20531;-87
2021/08/21 00:22:13;;;;;;;153.77;104.97;;;;;;;;;;5219996;27;20050;-86
2021/08/21 00:24:41;;;;;;;160.93;105.97;;;;;;;;;;5221495;27;20010;-86
2021/08/21 00:27:10;;;;;;;160.30;106.25;;;;;;;;;;5204236;27;20085;-86
2021/08/21 00:29:39;;;;;;;130.12;105.55;;;;;;;;;;5221783;27;20018;-87
2021/08/21 00:32:11;;;;;;;132.73;103.10;;;;;;;;;;5221920;27;20021;-86
2021/08/21 00:34:40;;;;;;;129.25;102.18;;;;;;;;;;5221957;27;20121;-87
2021/08/21 00:37:09;;;;;;;123.22;88.43;;;;;;;;;;5223560;27;20078;-86
2021/08/21 00:39:38;;;;;;;129.05;90.70;;;;;;;;;;5222720;27;20030;-86
2021/08/21 00:42:07;;;;;;;123.55;90.93;;;;;;;;;;5222913;27;20121;-87
2021/08/21 00:44:36;;;;;;;120.70;89.13;;;;;;;;;;5223118;27;20433;-87
2021/08/21 00:47:13;;;;;;;122.90;88.32;;;;;;;;;;5221580;27;20030;-86
2021/08/21 00:49:44;;;;;;;114.80;85.20;;;;;;;;;;5222665;27;20037;-86
2021/08/21 00:52:17;;;;;;;108.43;84.15;;;;;;;;;;5221163;27;20024;-86
2021/08/21 00:54:46;;;;;;;120.60;88.07;;;;;;;;;;5203765;27;20030;-86
2021/08/21 00:57:16;;;;;;;113.25;88.50;;;;;;;;;;5222186;27;20376;-86
2021/08/21 00:59:46;;;;;;;112.93;88.78;;;;;;;;;;5222054;27;20076;-86
2021/08/21 01:02:16;;;;;;;126.45;93.05;;;;;;;;;;5222144;27;20170;-88
2021/08/21 01:04:46;;;;;;;120.00;88.53;;;;;;;;;;5223312;27;20563;-87
2021/08/21 01:07:16;;;;;;;130.82;95.47;;;;;;;;;;5220672;27;20044;-87
2021/08/21 01:09:45;;;;;;;129.98;98.85;;;;;;;;;;5223115;27;20372;-86
2021/08/21 01:12:14;;;;;;;149.00;111.15;;;;;;;;;;5220206;27;20038;-87
2021/08/21 01:14:43;;;;;;;147.15;116.00;;;;;;;;;;5222009;27;20037;-87
2021/08/21 01:17:13;;;;;;;149.75;111.15;;;;;;;;;;5219384;27;20326;-86
2021/08/21 01:19:43;;;;;;;142.18;105.43;;;;;;;;;;5221008;27;20335;-87
2021/08/21 01:22:14;;;;;;;173.57;115.80;;;;;;;;;;5221353;27;20109;-86
2021/08/21 01:24:43;;;;;;;168.00;114.72;;;;;;;;;;5222756;27;20026;-87
2021/08/21 01:27:19;;;;;;;162.95;111.82;;;;;;;;;;5221264;27;20073;-87
2021/08/21 01:29:50;;;;;;;168.40;112.05;;;;;;;;;;5221290;27;20389;-86
2021/08/21 01:32:19;;;;;;;163.77;110.53;;;;;;;;;;5222250;27;20058;-87
2021/08/21 01:34:49;;;;;;;167.80;107.20;;;;;;;;;;5221094;27;20081;-87
2021/08/21 01:37:18;;;;;;;158.23;100.55;;;;;;;;;;5221812;27;20490;-87
2021/08/21 01:39:48;;;;;;;137.10;89.55;;;;;;;;;;5219465;27;20050;-86
2021/08/21 01:42:17;;;;;;;137.90;88.53;;;;;;;;;;5219696;27;20492;-86
2021/08/21 01:44:46;;;;;;;153.77;102.82;;;;;;;;;;5218412;27;20048;-87
2021/08/21 01:47:16;;;;;;;153.00;104.57;;;;;;;;;;5219860;27;20436;-87
2021/08/21 01:50:02;;;;;;;153.07;109.95;;;;;;;;;;5199999;27;20029;-87
2021/08/21 01:52:31;;;;;;;135.25;106.90;;;;;;;;;;5218127;27;20046;-87
2021/08/21 01:54:59;;;;;;;138.18;110.25;;;;;;;;;;5218212;27;20039;-86
2021/08/21 01:57:29;;;;;;;179.95;119.50;;;;;;;;;;5217456;27;20697;-87
2021/08/21 01:59:59;;;;;;;182.30;120.22;;;;;;;;;;5220924;27;20082;-87
2021/08/21 02:02:28;;;;;;;178.50;120.55;;;;;;;;;;5221619;27;20086;-87
2021/08/21 02:05:08;;;;;;;173.68;120.65;;;;;;;;;;5223467;27;20072;-86
2021/08/21 02:07:37;;;;;;;186.55;120.95;;;;;;;;;;5222724;27;20039;-87
2021/08/21 02:10:07;;;;;;;186.60;127.35;;;;;;;;;;5223479;27;20276;-86
2021/08/21 02:12:35;;;;;;;185.25;127.87;;;;;;;;;;5225217;27;20029;-87
2021/08/21 02:15:05;;;;;;;169.75;117.53;;;;;;;;;;5222729;27;20019;-87
2021/08/21 02:17:35;;;;;;;170.12;118.07;;;;;;;;;;5221393;27;20045;-87
2021/08/21 02:20:11;;;;;;;160.35;117.22;;;;;;;;;;5223686;27;20282;-86
2021/08/21 02:22:42;;;;;;;158.27;126.43;;;;;;;;;;5224183;27;20069;-87
2021/08/21 02:25:12;;;;;;;163.07;126.53;;;;;;;;;;5200531;27;20397;-86
2021/08/21 02:27:44;;;;;;;155.90;118.65;;;;;;;;;;5202179;27;20066;-86
2021/08/21 02:30:13;;;;;;;155.93;118.87;;;;;;;;;;5220340;27;20042;-86
2021/08/21 02:32:42;;;;;;;166.73;127.50;;;;;;;;;;5204870;27;20775;-86
2021/08/21 02:35:13;;;;;;;149.00;106.05;;;;;;;;;;5222814;27;20023;-86
2021/08/21 02:37:42;;;;;;;168.45;114.45;;;;;;;;;;5221340;27;20058;-86
2021/08/21 02:40:11;;;;;;;171.20;115.47;;;;;;;;;;5218787;27;20053;-86
2021/08/21 02:42:39;;;;;;;174.05;116.07;;;;;;;;;;5220236;27;20038;-87
2021/08/21 02:45:08;;;;;;;151.02;101.03;;;;;;;;;;5220780;27;20050;-86
2021/08/21 02:47:37;;;;;;;167.23;113.60;;;;;;;;;;5221501;27;20069;-87
2021/08/21 02:50:05;;;;;;;171.05;114.30;;;;;;;;;;5200988;27;20084;-87
2021/08/21 02:52:34;;;;;;;164.13;112.90;;;;;;;;;;5222525;27;20169;-87
2021/08/21 02:55:03;;;;;;;159.48;113.93;;;;;;;;;;5222526;27;20046;-86
2021/08/21 02:57:31;;;;;;;128.32;106.68;;;;;;;;;;5222182;27;20085;-87
2021/08/21 03:00:00;;;;;;;156.65;127.32;;;;;;;;;;5218972;27;20058;-86
2021/08/21 03:02:30;;;;;;;145.00;119.07;;;;;;;;;;5219758;27;20093;-86
2021/08/21 03:05:00;;;;;;;152.00;121.37;;;;;;;;;;5199616;27;20019;-87
2021/08/21 03:07:29;;;;;;;147.70;122.47;;;;;;;;;;5218959;27;20463;-86
2021/08/21 03:09:58;;;;;;;135.52;116.05;;;;;;;;;;5221388;27;20303;-87
2021/08/21 05:50:39;;;;;;;158.85;105.60;;;;;;;;;;5199324;27;20081;-85
2021/08/21 05:53:08;;;;;;;163.35;107.28;;;;;;;;;;5180361;27;20054;-84
2021/08/21 05:55:37;;;;;;;135.43;94.57;;;;;;;;;;5198722;27;20113;-83
2021/08/21 05:58:05;;;;;;;144.43;97.62;;;;;;;;;;5200764;27;20062;-85
2021/08/21 06:00:34;;;;;;;137.18;96.03;;;;;;;;;;5200729;27;20058;-85
2021/08/21 06:03:04;;;;;;;130.77;97.82;;;;;;;;;;5200647;27;20074;-85
2021/08/21 06:05:32;;;;;;;140.90;100.40;;;;;;;;;;5182284;27;20018;-85
2021/08/21 06:08:01;;;;;;;143.50;114.78;;;;;;;;;;5180396;27;20043;-86
2021/08/21 06:10:30;;;;;;;139.35;116.05;;;;;;;;;;5200040;27;20055;-85
2021/08/21 06:12:58;;;;;;;141.00;115.43;;;;;;;;;;5199709;27;20038;-84
2021/08/21 06:15:26;;;;;;;122.45;108.90;;;;;;;;;;5199881;27;20500;-85
2021/08/21 06:17:55;;;;;;;125.93;112.30;;;;;;;;;;5180823;27;20071;-85
2021/08/21 06:20:23;;;;;;;144.62;102.50;;;;;;;;;;5200016;27;20077;-84
2021/08/21 06:22:52;;;;;;;157.70;116.72;;;;;;;;;;5198905;27;20644;-86
2021/08/21 06:25:21;;;;;;;151.90;104.68;;;;;;;;;;5200340;27;20035;-86
2021/08/21 06:27:50;;;;;;;148.05;103.28;;;;;;;;;;5199094;27;20046;-86
2021/08/21 06:30:20;;;;;;;135.05;98.22;;;;;;;;;;5199436;27;20053;-86
2021/08/21 06:32:49;;;;;;;133.90;97.05;;;;;;;;;;5199477;27;20045;-85
2021/08/21 06:35:17;;;;;;;135.12;97.50;;;;;;;;;;5198997;27;20459;-85
2021/08/21 06:37:45;;;;;;;130.52;95.85;;;;;;;;;;5200286;27;20051;-85
2021/08/21 06:40:14;;;;;;;133.98;96.20;;;;;;;;;;5180108;27;20031;-85
2021/08/21 06:42:42;;;;;;;133.18;91.63;;;;;;;;;;5180998;27;20391;-85
2021/08/21 06:45:14;;;;;;;155.27;112.72;;;;;;;;;;5199323;27;20022;-86
2021/08/21 06:47:43;;;;;;;142.25;109.70;;;;;;;;;;5200397;27;20035;-86
2021/08/21 06:50:11;;;;;;;133.75;107.28;;;;;;;;;;5180885;27;20081;-86
2021/08/21 06:52:40;;;;;;;117.53;99.32;;;;;;;;;;5199918;27;20074;-86
2021/08/21 06:55:08;;;;;;;131.52;118.18;;;;;;;;;;5199112;27;20105;-86
2021/08/21 06:57:50;;;;;;;127.55;114.85;;;;;;;;;;5199837;27;20062;-86
2021/08/21 07:00:19;;;;;;;115.65;104.40;;;;;;;;;;5199824;27;20474;-86
2021/08/21 07:02:48;;;;;;;123.18;111.97;;;;;;;;;;5198985;27;20050;-86
2021/08/21 07:05:16;;;;;;;136.15;123.13;;;;;;;;;;5179075;27;20530;-87
2021/08/21 07:07:45;;;;;;;135.48;122.50;;;;;;;;;;5198028;27;20511;-86
2021/08/21 07:10:13;;;;;;;131.55;119.35;;;;;;;;;;5199789;27;20322;-86
2021/08/21 07:12:42;;;;;;;139.07;126.12;;;;;;;;;;5182562;27;20042;-85
2021/08/21 07:15:11;;;;;;;128.55;117.00;;;;;;;;;;5200280;27;20031;-86
2021/08/21 07:17:40;;;;;;;28.70;26.40;;;;;;;;;;5201242;27;20033;-86
2021/08/21 07:20:08;;;;;;;10.85;9.60;;;;;;;;;;5200660;27;20038;-86
2021/08/21 07:22:37;;;;;;;3.95;1.20;;;;;;;;;;5198497;27;20034;-87
2021/08/21 07:25:06;;;;;;;3.40;1.00;;;;;;;;;;5199072;27;20053;-87
2021/08/21 07:27:34;;;;;;;4.68;1.10;;;;;;;;;;5200636;27;20042;-87
2021/08/21 07:30:06;;;;;;;4.60;1.48;;;;;;;;;;5200221;27;20448;-87
2021/08/21 07:32:36;;;;;;;3.35;1.02;;;;;;;;;;5200145;27;20221;-87
2021/08/21 07:35:05;;;;;;;3.90;1.10;;;;;;;;;;5200662;27;20113;-87
2021/08/21 07:37:35;;;;;;;5.40;1.40;;;;;;;;;;5199064;27;20402;-86
2021/08/21 07:40:05;;;;;;;5.10;1.40;;;;;;;;;;5199567;27;20019;-87
2021/08/21 07:42:34;;;;;;;8.02;1.40;;;;;;;;;;5199914;27;20034;-88
2021/08/21 07:45:03;;;;;;;4.30;1.10;;;;;;;;;;5177151;27;20347;-87
2021/08/21 07:47:31;;;;;;;6.35;1.37;;;;;;;;;;5196738;27;20528;-87
2021/08/21 07:50:00;;;;;;;2.95;1.20;;;;;;;;;;5194954;27;20023;-87
2021/08/21 07:52:29;;;;;;;6.50;1.23;;;;;;;;;;5195925;27;20072;-87
2021/08/21 07:54:57;;;;;;;5.20;1.55;;;;;;;;;;5199057;27;20089;-87
2021/08/21 07:57:26;;;;;;;4.93;1.23;;;;;;;;;;5196705;27;20151;-87
2021/08/21 07:59:56;;;;;;;4.97;1.50;;;;;;;;;;5178642;27;20085;-87
2021/08/21 08:02:24;;;;;;;5.75;1.20;;;;;;;;;;5176524;27;20054;-86
2021/08/21 08:04:53;;;;;;;6.62;1.20;;;;;;;;;;5196275;27;20034;-87
2021/08/21 08:07:21;;;;;;;8.07;1.70;;;;;;;;;;5198948;27;20578;-88
2021/08/21 08:09:49;;;;;;;3.12;1.10;;;;;;;;;;5189306;27;20069;-87
2021/08/21 08:12:18;;;;;;;5.07;1.50;;;;;;;;;;5197118;27;20041;-87
2021/08/21 08:14:47;;;;;;;4.03;1.50;;;;;;;;;;5199345;27;20027;-87
2021/08/21 08:17:16;;;;;;;5.55;1.52;;;;;;;;;;5200403;27;20074;-86
2021/08/21 08:19:44;;;;;;;4.62;1.25;;;;;;;;;;5199237;27;20042;-87
2021/08/21 08:22:13;;;;;;;6.62;1.77;;;;;;;;;;5201225;27;20104;-86
2021/08/21 08:24:41;;;;;;;2.78;1.20;;;;;;;;;;5199718;27;20402;-87
2021/08/21 08:27:13;;;;;;;4.65;1.45;;;;;;;;;;5201744;27;20062;-87
2021/08/21 08:29:41;;;;;;;5.20;1.50;;;;;;;;;;5164872;27;20456;-87
2021/08/21 08:32:10;;;;;;;5.50;1.52;;;;;;;;;;5202768;27;20432;-88
2021/08/21 08:34:38;;;;;;;3.75;1.25;;;;;;;;;;5202774;27;20394;-87
2021/08/21 08:37:10;;;;;;;4.30;1.45;;;;;;;;;;5201363;27;20349;-87
2021/08/21 08:39:41;;;;;;;5.30;1.50;;;;;;;;;;5202338;27;20108;-88
2021/08/21 08:42:09;;;;;;;4.00;1.42;;;;;;;;;;5203283;27;20588;-88
2021/08/21 08:44:45;;;;;;;6.65;1.70;;;;;;;;;;5199690;27;20038;-87
2021/08/21 08:47:15;;;;;;;4.45;1.52;;;;;;;;;;5200681;27;20538;-85
2021/08/21 08:49:45;;;;;;;5.62;1.42;;;;;;;;;;5199168;27;20469;-85
2021/08/21 08:52:18;;;;;;;4.12;1.50;;;;;;;;;;5199869;27;20669;-85
2021/08/21 08:54:47;;;;;;;5.22;1.33;;;;;;;;;;5200427;27;20033;-85
2021/08/21 08:57:35;;;;;;;4.70;1.20;;;;;;;;;;5180279;27;20153;-85
2021/08/21 09:00:05;;;;;;;5.12;1.35;;;;;;;;;;5202512;27;20033;-85
2021/08/21 09:02:42;;;;;;;4.95;1.42;;;;;;;;;;5179121;27;20049;-84
2021/08/21 09:05:12;;;;;;;3.15;1.40;;;;;;;;;;5180345;27;20436;-85
2021/08/21 09:07:41;;;;;;;3.22;1.30;;;;;;;;;;5198508;27;20062;-85
2021/08/21 09:10:10;;;;;;;10.57;1.83;;;;;;;;;;5182322;27;20062;-85
2021/08/21 09:12:38;;;;;;;4.82;1.40;;;;;;;;;;5198946;27;20181;-85
2021/08/21 09:15:19;;;;;;;3.80;1.27;;;;;;;;;;5202184;27;20465;-85
2021/08/21 09:18:03;;;;;;;2.67;1.20;;;;;;;;;;5180707;27;20018;-85
2021/08/21 09:20:52;;;;;;;5.50;1.40;;;;;;;;;;5181163;27;20417;-85
2021/08/21 09:23:25;;;;;;;3.55;1.40;;;;;;;;;;5202315;27;20040;-85
2021/08/21 09:25:56;;;;;;;3.47;1.30;;;;;;;;;;5180962;27;20019;-86
2021/08/21 09:28:26;;;;;;;5.45;1.42;;;;;;;;;;5201090;27;20036;-84
2021/08/21 09:31:03;;;;;;;5.00;1.15;;;;;;;;;;5200923;27;20539;-85
2021/08/21 09:33:33;;;;;;;3.85;1.30;;;;;;;;;;5198967;27;20053;-85
2021/08/21 09:36:02;;;;;;;6.28;1.37;;;;;;;;;;5199957;27;20031;-85
2021/08/21 09:38:34;;;;;;;2.25;1.20;;;;;;;;;;5200575;27;20029;-86
2021/08/21 09:41:10;;;;;;;11.68;2.12;;;;;;;;;;5174090;27;20549;-85
2021/08/21 09:43:39;;;;;;;5.00;1.40;;;;;;;;;;5180518;27;20018;-85
2021/08/21 09:46:12;;;;;;;5.25;1.50;;;;;;;;;;5182477;27;20372;-86
2021/08/21 09:48:59;;;;;;;3.58;1.17;;;;;;;;;;5201470;27;20019;-85
2021/08/21 09:51:32;;;;;;;3.87;1.42;;;;;;;;;;5159382;27;20030;-84
2021/08/21 09:54:01;;;;;;;7.03;1.50;;;;;;;;;;5200578;27;20311;-86
2021/08/21 09:56:34;;;;;;;3.12;1.27;;;;;;;;;;5162167;27;20152;-85
2021/08/21 09:59:04;;;;;;;4.72;1.20;;;;;;;;;;5200866;27;20844;-85
2021/08/21 10:01:33;;;;;;;3.65;1.25;;;;;;;;;;5197544;27;20026;-85
2021/08/21 10:04:03;;;;;;;3.35;1.25;;;;;;;;;;5199353;27;20054;-85
2021/08/21 10:06:31;;;;;;;3.87;1.37;;;;;;;;;;5200532;27;20026;-85
2021/08/21 10:09:10;;;;;;;5.95;1.50;;;;;;;;;;5181617;27;20064;-85
2021/08/21 10:11:39;;;;;;;4.60;1.30;;;;;;;;;;5198972;27;20014;-85
2021/08/21 10:14:07;;;;;;;6.30;1.27;;;;;;;;;;5200057;27;20471;-85
2021/08/21 10:16:36;;;;;;;9.93;1.60;;;;;;;;;;5202170;27;20050;-84
2021/08/21 10:19:06;;;;;;;4.40;1.40;;;;;;;;;;5204423;27;20061;-85
2021/08/21 10:21:34;;;;;;;3.35;1.30;;;;;;;;;;5178617;27;20030;-84
2021/08/21 10:24:02;;;;;;;6.93;1.50;;;;;;;;;;5203829;27;20678;-85
2021/08/21 10:26:37;;;;;;;2.37;1.30;;;;;;;;;;5204341;27;20058;-84
2021/08/21 10:29:14;;;;;;;2.00;1.05;;;;;;;;;;5203806;27;20554;-85
2021/08/21 10:31:44;;;;;;;3.67;1.17;;;;;;;;;;5185953;27;20050;-85
2021/08/21 10:34:14;;;;;;;30.27;3.95;;;;;;;;;;5203272;27;20071;-84
2021/08/21 10:36:46;;;;;;;23.10;3.22;;;;;;;;;;5203037;27;20432;-84
2021/08/21 10:39:34;;;;;;;4.47;1.60;;;;;;;;;;5204648;27;20035;-85
2021/08/21 10:42:41;;;;;;;26.35;2.70;;;;;;;;;;5172844;27;20035;-85
2021/08/21 10:45:10;;;;;;;3.95;1.30;;;;;;;;;;5079099;28;20427;-84
2021/08/21 10:47:39;;;;;;;4.62;1.55;;;;;;;;;;5096554;28;20438;-84
2021/08/21 10:50:16;;;;;;;4.22;1.42;;;;;;;;;;5146255;27;20223;-85
2021/08/21 10:52:45;;;;;;;9.00;2.00;;;;;;;;;;5184811;27;20054;-84
2021/08/21 10:55:21;;;;;;;4.40;1.30;;;;;;;;;;5201763;27;20019;-84
2021/08/21 10:57:55;;;;;;;8.57;1.48;;;;;;;;;;5192679;27;20026;-84
2021/08/21 11:00:39;;;;;;;4.03;1.10;;;;;;;;;;5184580;27;20042;-84
2021/08/21 11:03:09;;;;;;;16.45;2.33;;;;;;;;;;5201060;27;20023;-85
2021/08/21 11:05:55;;;;;;;10.68;1.65;;;;;;;;;;5184236;27;20070;-85
2021/08/21 11:08:28;;;;;;;4.00;1.27;;;;;;;;;;5185780;27;20085;-87
2021/08/21 11:11:08;;;;;;;3.63;1.20;;;;;;;;;;5204061;27;20011;-88
2021/08/21 11:13:48;;;;;;;4.90;1.35;;;;;;;;;;5186770;27;20330;-87
2021/08/21 11:16:20;;;;;;;3.92;1.50;;;;;;;;;;5201735;27;20026;-87
2021/08/21 11:18:53;;;;;;;3.27;1.17;;;;;;;;;;5185432;27;20072;-88
2021/08/21 11:21:37;;;;;;;3.90;1.40;;;;;;;;;;5203513;27;20017;-87
2021/08/21 11:24:26;;;;;;;3.87;1.30;;;;;;;;;;5197403;27;20440;-87
2021/08/21 11:27:14;;;;;;;4.25;1.40;;;;;;;;;;5183364;27;20003;-87
2021/08/21 11:30:02;;;;;;;10.13;1.20;;;;;;;;;;5175764;27;20069;-87
2021/08/21 11:32:31;;;;;;;7.82;1.52;;;;;;;;;;5203321;27;20462;-88
2021/08/21 11:35:00;;;;;;;3.37;1.10;;;;;;;;;;5200874;27;20035;-86
2021/08/21 11:37:30;;;;;;;8.18;1.50;;;;;;;;;;5202084;27;20048;-86
2021/08/21 11:39:59;;;;;;;7.15;1.30;;;;;;;;;;5203628;27;20377;-87
2021/08/21 11:42:45;;;;;;;4.95;1.33;;;;;;;;;;5201636;27;20057;-87
2021/08/21 11:45:14;;;;;;;7.82;1.37;;;;;;;;;;5203438;27;20033;-87
2021/08/21 11:47:43;;;;;;;3.87;1.10;;;;;;;;;;5202155;27;20379;-87
2021/08/21 11:50:25;;;;;;;5.72;1.40;;;;;;;;;;5197240;27;20050;-87
2021/08/21 11:52:54;;;;;;;5.85;1.50;;;;;;;;;;5199110;27;20084;-87
2021/08/21 11:55:23;;;;;;;2.53;1.10;;;;;;;;;;5197051;27;20030;-87
2021/08/21 11:57:52;;;;;;;2.35;1.10;;;;;;;;;;5203034;27;20019;-85
2021/08/21 12:00:23;;;;;;;9.02;1.30;;;;;;;;;;5202596;27;20389;-87
2021/08/21 12:02:56;;;;;;;5.50;1.20;;;;;;;;;;5202574;27;20015;-86
2021/08/21 12:05:35;;;;;;;5.97;1.33;;;;;;;;;;5200498;27;20062;-87
2021/08/21 12:08:20;;;;;;;4.50;1.23;;;;;;;;;;5198016;27;20473;-86
2021/08/21 12:10:56;;;;;;;3.53;1.00;;;;;;;;;;5199156;27;20467;-86
2021/08/21 12:13:27;;;;;;;5.25;1.30;;;;;;;;;;5200238;27;20467;-86
2021/08/21 12:15:56;;;;;;;6.70;1.30;;;;;;;;;;5199699;27;20372;-87
2021/08/21 12:18:26;;;;;;;5.40;1.20;;;;;;;;;;5197514;27;20051;-87
2021/08/21 12:20:55;;;;;;;5.97;1.40;;;;;;;;;;5200789;27;20037;-86
2021/08/21 12:23:23;;;;;;;5.22;1.20;;;;;;;;;;5203164;27;20022;-86
2021/08/21 12:25:53;;;;;;;4.47;1.40;;;;;;;;;;5200964;27;20031;-86
2021/08/21 12:28:23;;;;;;;5.03;1.37;;;;;;;;;;5198225;27;20448;-86
2021/08/21 12:30:53;;;;;;;4.47;1.25;;;;;;;;;;5204529;27;20512;-86
2021/08/21 12:33:29;;;;;;;8.45;1.33;;;;;;;;;;5184392;27;20019;-86
2021/08/21 12:36:10;;;;;;;5.75;1.15;;;;;;;;;;5201739;27;20054;-87
2021/08/21 12:38:38;;;;;;;5.30;1.20;;;;;;;;;;5182885;27;20045;-86
2021/08/21 12:41:14;;;;;;;6.20;1.40;;;;;;;;;;5202513;27;20429;-86
2021/08/21 12:43:42;;;;;;;3.85;1.30;;;;;;;;;;5201421;27;20045;-86
2021/08/21 12:46:19;;;;;;;6.78;1.40;;;;;;;;;;5201798;27;20041;-87
2021/08/21 12:48:48;;;;;;;4.20;1.25;;;;;;;;;;5205587;27;20830;-87
2021/08/21 12:51:36;;;;;;;4.12;1.17;;;;;;;;;;5200785;27;20080;-86
2021/08/21 12:54:05;;;;;;;5.32;1.70;;;;;;;;;;5181220;27;20014;-86
2021/08/21 12:56:34;;;;;;;8.10;1.58;;;;;;;;;;5183371;27;20069;-86
2021/08/21 12:59:25;;;;;;;5.22;1.48;;;;;;;;;;5202545;27;20081;-86
2021/08/21 13:02:01;;;;;;;5.22;1.20;;;;;;;;;;5192266;27;20109;-87
2021/08/21 13:04:30;;;;;;;5.85;1.50;;;;;;;;;;5204637;27;20018;-87
2021/08/21 13:07:00;;;;;;;5.12;1.30;;;;;;;;;;5204735;27;20504;-86
2021/08/21 13:09:28;;;;;;;8.57;1.60;;;;;;;;;;5201127;27;20114;-86
2021/08/21 13:11:57;;;;;;;7.95;1.25;;;;;;;;;;5201321;27;20022;-87
2021/08/21 13:14:26;;;;;;;6.22;1.45;;;;;;;;;;5201990;27;20409;-87
2021/08/21 13:16:56;;;;;;;7.82;1.40;;;;;;;;;;5201723;27;20038;-87
2021/08/21 13:19:24;;;;;;;5.80;1.48;;;;;;;;;;5200069;27;20436;-86
2021/08/21 13:21:53;;;;;;;5.68;1.20;;;;;;;;;;5200099;27;20035;-87
2021/08/21 13:24:21;;;;;;;5.12;1.27;;;;;;;;;;5202247;27;20080;-87
2021/08/21 13:26:50;;;;;;;7.55;1.58;;;;;;;;;;5200540;27;20042;-86
2021/08/21 13:29:18;;;;;;;5.55;1.30;;;;;;;;;;5199667;27;20069;-86
2021/08/21 13:31:47;;;;;;;3.62;1.20;;;;;;;;;;5201477;27;20023;-86
2021/08/21 13:34:15;;;;;;;5.18;1.35;;;;;;;;;;5201447;27;20038;-87
2021/08/21 13:36:46;;;;;;;10.75;1.85;;;;;;;;;;5165029;27;20076;-88
2021/08/21 13:39:15;;;;;;;3.60;1.23;;;;;;;;;;5201020;27;20034;-85
2021/08/21 13:41:43;;;;;;;5.20;1.73;;;;;;;;;;5180596;27;20030;-86
2021/08/21 13:44:12;;;;;;;6.25;1.27;;;;;;;;;;5183446;27;20432;-86
2021/08/21 13:46:40;;;;;;;5.93;1.30;;;;;;;;;;5183092;27;20318;-86
2021/08/21 13:49:08;;;;;;;6.70;1.27;;;;;;;;;;5184006;27;20822;-86
2021/08/21 13:51:39;;;;;;;6.07;1.33;;;;;;;;;;5183628;27;20508;-87
2021/08/21 13:54:07;;;;;;;6.78;1.23;;;;;;;;;;5183725;27;20042;-86
2021/08/21 13:56:37;;;;;;;6.00;1.05;;;;;;;;;;5203682;27;20038;-86
2021/08/21 13:59:06;;;;;;;6.43;1.20;;;;;;;;;;5204825;27;20026;-87
2021/08/21 14:01:35;;;;;;;7.00;1.50;;;;;;;;;;5201301;27;20023;-87
2021/08/21 14:04:05;;;;;;;6.78;1.37;;;;;;;;;;5204051;27;20030;-87
2021/08/21 14:06:40;;;;;;;4.53;1.27;;;;;;;;;;5164529;27;20504;-87
2021/08/21 14:09:09;;;;;;;6.03;1.25;;;;;;;;;;5203859;27;20050;-87
2021/08/21 14:11:39;;;;;;;5.15;1.45;;;;;;;;;;5183117;27;20378;-86
2021/08/21 14:14:08;;;;;;;5.40;1.20;;;;;;;;;;5205114;27;20133;-86
2021/08/21 14:16:37;;;;;;;3.22;1.17;;;;;;;;;;5203370;27;20034;-86
2021/08/21 14:19:06;;;;;;;8.23;1.33;;;;;;;;;;5164332;27;20057;-87
2021/08/21 14:21:35;;;;;;;6.18;1.20;;;;;;;;;;5201504;27;21001;-86
2021/08/21 14:24:04;;;;;;;4.05;1.58;;;;;;;;;;5202270;27;20034;-87
2021/08/21 14:26:32;;;;;;;5.53;0.98;;;;;;;;;;5204628;27;20061;-87
2021/08/21 14:29:01;;;;;;;7.43;1.37;;;;;;;;;;5185551;27;20026;-86
2021/08/21 14:31:30;;;;;;;6.07;1.37;;;;;;;;;;5202850;27;20726;-86
2021/08/21 14:33:58;;;;;;;5.87;1.30;;;;;;;;;;5203454;27;20042;-86
2021/08/21 14:36:28;;;;;;;17.80;2.28;;;;;;;;;;5202724;27;20065;-87
2021/08/21 14:38:57;;;;;;;4.60;1.00;;;;;;;;;;5203598;27;20027;-86
2021/08/21 14:41:26;;;;;;;6.35;1.20;;;;;;;;;;5197954;27;20011;-86
2021/08/21 14:43:54;;;;;;;7.40;1.42;;;;;;;;;;5199481;27;20039;-85
2021/08/21 14:46:23;;;;;;;6.57;1.20;;;;;;;;;;5198150;27;20345;-87
2021/08/21 14:48:51;;;;;;;7.57;1.62;;;;;;;;;;5179418;27;20069;-86
2021/08/21 14:51:19;;;;;;;6.15;1.15;;;;;;;;;;5196387;27;20038;-86
2021/08/21 14:53:48;;;;;;;6.07;1.30;;;;;;;;;;5201620;27;20065;-85
2021/08/21 14:56:16;;;;;;;5.80;1.30;;;;;;;;;;5195329;27;20014;-86
2021/08/21 14:58:45;;;;;;;5.43;1.25;;;;;;;;;;5202490;27;20121;-86
2021/08/21 15:01:13;;;;;;;8.43;1.42;;;;;;;;;;5201690;27;20043;-86
2021/08/21 15:03:42;;;;;;;4.05;1.20;;;;;;;;;;5184606;27;20053;-87
2021/08/21 15:06:11;;;;;;;6.50;1.40;;;;;;;;;;5203762;27;20025;-86
2021/08/21 15:18:31;;;;;;;9.48;1.95;;;;;;;;;;5201665;27;20094;-86
2021/08/21 15:21:00;;;;;;;8.05;1.40;;;;;;;;;;5201722;27;20023;-86
2021/08/21 15:23:29;;;;;;;7.03;1.58;;;;;;;;;;5206761;27;20015;-86
2021/08/21 15:25:58;;;;;;;9.13;1.83;;;;;;;;;;5205134;27;20065;-86
2021/08/21 15:28:27;;;;;;;5.72;1.73;;;;;;;;;;5186376;27;20519;-86
2021/08/21 15:30:57;;;;;;;6.10;1.33;;;;;;;;;;5204437;27;20057;-86
2021/08/21 15:33:26;;;;;;;9.95;1.90;;;;;;;;;;5185598;27;20061;-85
2021/08/21 15:35:54;;;;;;;5.35;1.52;;;;;;;;;;5202895;27;20098;-86
2021/08/21 15:38:23;;;;;;;9.57;1.77;;;;;;;;;;5184524;27;20054;-86
2021/08/21 15:40:54;;;;;;;6.43;1.48;;;;;;;;;;5202171;27;20033;-86
2021/08/21 15:43:23;;;;;;;7.87;1.50;;;;;;;;;;5182326;27;20205;-85
2021/08/21 15:45:51;;;;;;;5.55;1.70;;;;;;;;;;5178680;27;20042;-86
2021/08/21 15:48:25;;;;;;;8.75;1.58;;;;;;;;;;5199055;27;20045;-86
2021/08/21 15:50:55;;;;;;;5.12;2.10;;;;;;;;;;5201431;27;20137;-86
2021/08/21 15:53:25;;;;;;;4.87;1.50;;;;;;;;;;5200964;27;20026;-85
2021/08/21 15:55:54;;;;;;;7.70;1.65;;;;;;;;;;5202640;27;20439;-86
2021/08/21 15:58:23;;;;;;;8.70;1.73;;;;;;;;;;5197353;27;20033;-86
2021/08/21 16:00:51;;;;;;;4.93;2.05;;;;;;;;;;5180256;27;20450;-85
2021/08/21 16:03:20;;;;;;;6.65;1.85;;;;;;;;;;5197226;27;20090;-86
2021/08/21 16:05:49;;;;;;;8.02;2.47;;;;;;;;;;5195694;27;20050;-87
2021/08/21 16:08:17;;;;;;;6.15;3.00;;;;;;;;;;5200758;27;20080;-86
2021/08/21 16:10:46;;;;;;;6.70;2.40;;;;;;;;;;5182751;27;20078;-85
2021/08/21 16:13:14;;;;;;;7.53;4.85;;;;;;;;;;5201037;27;20034;-86
2021/08/21 16:15:43;;;;;;;9.38;6.15;;;;;;;;;;5163909;27;20077;-86
2021/08/21 16:18:12;;;;;;;13.05;9.57;;;;;;;;;;5202665;27;20053;-86
2021/08/21 16:20:40;;;;;;;8.98;5.78;;;;;;;;;;5196361;27;20033;-85
2021/08/21 16:23:09;;;;;;;9.45;4.60;;;;;;;;;;5194977;27;20428;-86
2021/08/21 16:25:38;;;;;;;13.13;10.18;;;;;;;;;;5200039;27;20069;-85
2021/08/21 16:28:06;;;;;;;14.57;13.43;;;;;;;;;;5178208;27;20498;-85
2021/08/21 16:30:35;;;;;;;14.77;13.50;;;;;;;;;;5191210;27;20491;-85
2021/08/21 16:36:12;;;;;;;27.23;25.73;;;;;;;;;;5190221;27;20104;-85
2021/08/21 16:38:40;;;;;;;49.88;47.28;;;;;;;;;;5191341;27;20117;-86
2021/08/21 16:41:09;;;;;;;25.15;23.65;;;;;;;;;;5189332;27;20117;-85
2021/08/21 16:43:37;;;;;;;40.63;37.42;;;;;;;;;;5197515;27;20085;-85
2021/08/21 16:46:06;;;;;;;51.40;48.08;;;;;;;;;;5179229;27;20463;-86
2021/08/21 16:48:34;;;;;;;21.87;20.55;;;;;;;;;;5201270;27;20046;-86
2021/08/21 16:51:03;;;;;;;25.77;23.92;;;;;;;;;;5181476;27;20030;-85
2021/08/21 16:53:32;;;;;;;22.58;21.23;;;;;;;;;;5199747;27;20421;-86
2021/08/21 16:56:03;;;;;;;21.45;20.20;;;;;;;;;;5201443;27;20413;-85
2021/08/21 16:58:35;;;;;;;31.27;29.48;;;;;;;;;;5200891;27;20069;-86
2021/08/21 17:01:03;;;;;;;34.63;31.08;;;;;;;;;;5202592;27;20065;-86
2021/08/21 17:03:32;;;;;;;45.33;42.88;;;;;;;;;;5185273;27;20031;-86
2021/08/21 17:06:01;;;;;;;46.30;43.72;;;;;;;;;;5202317;27;20046;-86
2021/08/21 17:08:29;;;;;;;65.18;61.92;;;;;;;;;;5193983;27;20514;-86
2021/08/21 17:10:58;;;;;;;82.12;78.12;;;;;;;;;;5194187;27;20459;-86
2021/08/21 17:13:26;;;;;;;65.97;62.58;;;;;;;;;;5198671;27;20032;-85
2021/08/21 17:15:55;;;;;;;84.28;80.05;;;;;;;;;;5199117;27;20053;-85
2021/08/21 17:18:24;;;;;;;131.95;125.07;;;;;;;;;;5173038;27;20112;-86
2021/08/21 17:20:52;;;;;;;130.65;123.90;;;;;;;;;;5197818;27;20066;-85
2021/08/21 17:23:20;;;;;;;178.10;167.82;;;;;;;;;;5203829;27;20057;-86
2021/08/21 17:25:49;;;;;;;194.27;183.62;;;;;;;;;;5203103;27;20389;-87
2021/08/21 17:28:18;;;;;;;120.43;113.68;;;;;;;;;;5205712;27;20453;-85
2021/08/21 17:30:47;;;;;;;107.97;101.30;;;;;;;;;;5188782;27;20019;-86
2021/08/21 17:33:17;;;;;;;95.45;89.97;;;;;;;;;;5189460;27;20027;-86
2021/08/21 17:35:45;;;;;;;76.12;71.95;;;;;;;;;;5206672;27;20035;-86